EISG

Sligo Airport

Sligo, Ireland
METAR EISG 211130Z 33012KT 9999 SCT030 14/07 Q1033
Observed Flight Rules
Jun-21 @ 11:30 UTC (18 hours ago) Visual Flight Rules
Wind Visibility Clouds
330° at 12 knots 10,000+ meters
  • Scattered at 3,000' AGL
Temperatures Readings
Current 14°C / 57°F
Dewpoint 7°C / 45°F
Humidity 63%
Altimeter 30.5" Hg
Pressure 1033 hPa
Elevation 3
METAR EISG 211130Z 33012KT 9999 SCT030 14/07 Q1033
Observed Flight Rules
Jun-21 @ 11:30 UTC
(18 hours ago)
VFR
Wind Visibility
330° at 12 knots 10,000+ meters
Clouds
  • Scattered at 3,000' AGL
Temperature Dewpoint
14°C / 57°F 7°C / 45°F
Humidity Altimeter Pressure
63% 30.5" Hg 1033 hPa